createdAt,value
2022-12-12T00:01:20.228Z,28.97
2022-12-12T00:03:48.085Z,27.70
2022-12-12T00:06:17.335Z,27.73
2022-12-12T00:08:45.126Z,33.10
2022-12-12T00:11:13.113Z,27.03
2022-12-12T00:13:41.100Z,27.20
2022-12-12T00:16:10.078Z,26.07
2022-12-12T00:18:38.443Z,27.90
2022-12-12T00:21:08.072Z,26.30
2022-12-12T00:23:37.424Z,22.83
2022-12-12T00:26:08.079Z,25.53
2022-12-12T00:28:36.234Z,25.30
2022-12-12T00:31:04.224Z,26.90
2022-12-12T00:33:32.119Z,29.53
2022-12-12T00:36:00.305Z,27.83
2022-12-12T00:38:28.129Z,29.83
2022-12-12T00:40:58.956Z,28.20
2022-12-12T00:43:27.292Z,24.50
2022-12-12T00:45:55.198Z,25.83
2022-12-12T00:48:23.045Z,26.20
2022-12-12T00:50:51.305Z,30.13
2022-12-12T00:53:19.188Z,23.73
2022-12-12T00:55:47.303Z,31.13
2022-12-12T00:58:16.427Z,28.60
2022-12-12T01:00:44.238Z,27.90
2022-12-12T01:03:12.039Z,27.40
2022-12-12T01:05:39.998Z,29.57
2022-12-12T01:08:07.889Z,28.30
2022-12-12T01:10:35.869Z,28.17
2022-12-12T01:13:03.935Z,28.80
2022-12-12T01:15:33.731Z,26.70
2022-12-12T01:18:01.750Z,28.20
2022-12-12T01:20:30.440Z,29.17
2022-12-12T01:22:58.268Z,30.03
2022-12-12T01:25:26.451Z,34.53
2022-12-12T01:27:54.347Z,26.90
2022-12-12T01:30:23.999Z,25.33
2022-12-12T01:32:53.256Z,25.33
2022-12-12T01:35:21.164Z,30.23
2022-12-12T01:37:49.460Z,28.57
2022-12-12T01:40:21.073Z,26.57
2022-12-12T01:42:49.380Z,28.40
2022-12-12T01:45:54.755Z,24.67
2022-12-12T01:48:26.775Z,25.83
2022-12-12T01:50:55.388Z,25.93
2022-12-12T01:53:25.514Z,25.33
2022-12-12T01:55:53.506Z,26.20
2022-12-12T01:58:21.567Z,25.60
2022-12-12T02:00:49.492Z,29.87
2022-12-12T02:03:17.394Z,28.87
2022-12-12T02:05:50.423Z,27.80
2022-12-12T02:08:19.729Z,30.50
2022-12-12T02:10:47.599Z,28.30
2022-12-12T02:13:19.048Z,29.17
2022-12-12T02:15:53.242Z,28.03
2022-12-12T02:18:23.826Z,27.20
2022-12-12T02:21:02.748Z,26.03
2022-12-12T02:24:06.752Z,26.00
2022-12-12T02:26:51.455Z,27.93
2022-12-12T02:29:56.033Z,30.87
2022-12-12T02:32:30.541Z,27.27
2022-12-12T02:35:05.681Z,26.17
2022-12-12T02:37:40.560Z,28.00
2022-12-12T02:40:14.405Z,27.30
2022-12-12T02:42:45.849Z,30.83
2022-12-12T02:45:18.778Z,27.30
2022-12-12T02:47:49.609Z,32.57
2022-12-12T02:50:20.074Z,29.07
2022-12-12T02:52:48.997Z,27.20
2022-12-12T02:55:17.320Z,27.37
2022-12-12T02:57:45.320Z,29.37
2022-12-12T03:00:15.211Z,28.30
2022-12-12T03:03:26.666Z,33.40
2022-12-12T03:06:24.642Z,30.23
2022-12-12T03:09:00.756Z,35.23
2022-12-12T03:11:35.180Z,34.20
2022-12-12T03:14:10.067Z,29.10
2022-12-12T03:16:40.686Z,31.70
2022-12-12T03:19:12.791Z,31.37
2022-12-12T03:21:47.518Z,29.90
2022-12-12T03:24:22.041Z,31.50
2022-12-12T03:26:53.287Z,29.97
2022-12-12T03:29:25.548Z,35.90
2022-12-12T03:31:56.079Z,31.10
2022-12-12T03:34:26.603Z,29.63
2022-12-12T03:36:57.424Z,28.83
2022-12-12T03:39:29.622Z,34.10
2022-12-12T03:42:01.029Z,31.80
2022-12-12T03:44:36.828Z,31.67
2022-12-12T03:47:13.865Z,31.00
2022-12-12T03:49:44.540Z,32.50
2022-12-12T03:52:18.160Z,33.07
2022-12-12T03:54:49.369Z,32.40
2022-12-12T03:57:20.238Z,34.47
2022-12-12T03:59:53.159Z,32.10
2022-12-12T04:02:23.673Z,30.20
2022-12-12T04:07:39.167Z,32.50
2022-12-12T04:10:25.449Z,35.57
2022-12-12T04:13:03.426Z,33.27
2022-12-12T04:15:47.264Z,29.80
2022-12-12T04:18:20.351Z,28.30
2022-12-12T04:21:15.215Z,34.43
2022-12-12T04:23:55.272Z,30.60
2022-12-12T04:26:41.880Z,33.03
2022-12-12T04:29:18.335Z,31.33
2022-12-12T04:31:50.908Z,33.57
2022-12-12T04:34:24.993Z,35.40
2022-12-12T04:36:53.576Z,33.63
2022-12-12T04:39:24.312Z,31.63
2022-12-12T04:41:53.774Z,34.00
2022-12-12T04:44:23.268Z,30.70
2022-12-12T04:46:53.849Z,32.13
2022-12-12T04:49:24.892Z,33.40
2022-12-12T04:51:55.295Z,31.20
2022-12-12T04:54:28.868Z,30.87
2022-12-12T04:57:00.076Z,35.47
2022-12-12T04:59:28.191Z,32.13
2022-12-12T05:02:00.655Z,35.20
2022-12-12T05:04:32.060Z,34.53
2022-12-12T05:07:03.687Z,31.37
2022-12-12T05:09:33.216Z,34.73
2022-12-12T05:12:01.073Z,34.27
2022-12-12T05:14:31.004Z,35.47
2022-12-12T05:17:03.100Z,33.07
2022-12-12T05:19:31.061Z,31.80
2022-12-12T05:21:58.853Z,35.00
2022-12-12T05:24:30.741Z,32.07
2022-12-12T05:27:00.224Z,34.87
2022-12-12T05:29:28.084Z,32.27
2022-12-12T05:31:56.224Z,34.57
2022-12-12T05:34:24.103Z,32.47
2022-12-12T05:36:52.007Z,36.13
2022-12-12T05:39:19.807Z,33.23
2022-12-12T05:41:47.743Z,32.07
2022-12-12T05:44:16.983Z,31.00
2022-12-12T05:46:45.608Z,30.87
2022-12-12T05:49:13.500Z,30.13
2022-12-12T05:51:41.819Z,30.13
2022-12-12T05:54:09.671Z,33.33
2022-12-12T05:56:37.481Z,27.73
2022-12-12T05:59:05.586Z,29.93
2022-12-12T06:01:35.235Z,31.13
2022-12-12T06:04:03.406Z,36.03
2022-12-12T06:06:31.587Z,32.60
2022-12-12T06:08:59.335Z,34.93
2022-12-12T06:11:27.189Z,29.97
2022-12-12T06:13:54.992Z,32.07
2022-12-12T06:16:22.984Z,30.50
2022-12-12T06:18:56.177Z,32.00
2022-12-12T06:21:24.294Z,35.87
2022-12-12T06:23:52.505Z,34.63
2022-12-12T06:26:21.751Z,30.90
2022-12-12T06:28:49.942Z,31.77
2022-12-12T06:31:18.310Z,29.47
2022-12-12T06:33:46.436Z,26.00
2022-12-12T06:36:23.693Z,30.43
2022-12-12T06:38:51.986Z,31.10
2022-12-12T06:41:20.543Z,31.47
2022-12-12T06:43:48.653Z,29.07
2022-12-12T06:46:18.836Z,28.27
2022-12-12T06:48:47.912Z,32.27
2022-12-12T06:51:19.283Z,36.03
2022-12-12T06:53:47.196Z,32.13
2022-12-12T06:56:16.842Z,34.07
2022-12-12T06:58:44.850Z,33.00
2022-12-12T07:01:13.707Z,30.53
2022-12-12T07:03:41.745Z,31.23
2022-12-12T07:06:10.157Z,30.10
2022-12-12T07:08:39.552Z,32.57
2022-12-12T07:11:08.998Z,31.50
2022-12-12T07:13:36.859Z,28.07
2022-12-12T07:16:05.093Z,30.53
2022-12-12T07:18:33.104Z,29.13
2022-12-12T07:21:00.868Z,29.73
2022-12-12T07:23:28.802Z,33.07
2022-12-12T07:25:58.044Z,31.63
2022-12-12T07:28:25.993Z,30.80
2022-12-12T07:30:53.940Z,35.03
2022-12-12T07:33:21.952Z,31.10
2022-12-12T07:35:49.867Z,33.47
2022-12-12T07:38:17.782Z,31.87
2022-12-12T07:40:45.692Z,31.83
2022-12-12T07:43:14.910Z,33.63
2022-12-12T07:45:45.055Z,31.43
2022-12-12T07:48:12.906Z,29.33
2022-12-12T07:50:41.268Z,31.23
2022-12-12T07:53:09.333Z,29.77
2022-12-12T07:55:40.552Z,31.37
2022-12-12T07:58:08.389Z,32.23
2022-12-12T08:00:37.608Z,33.17
2022-12-12T08:03:05.478Z,30.93
2022-12-12T08:05:33.392Z,33.40
2022-12-12T08:08:01.348Z,28.37
2022-12-12T08:10:29.255Z,32.97
2022-12-12T08:12:57.057Z,29.70
2022-12-12T08:15:24.930Z,29.27
2022-12-12T08:17:54.166Z,30.73
2022-12-12T08:20:22.991Z,31.20
2022-12-12T08:22:50.904Z,29.93
2022-12-12T08:25:18.818Z,34.00
2022-12-12T08:27:46.703Z,31.97
2022-12-12T08:30:14.962Z,32.70
2022-12-12T08:32:42.851Z,36.00
2022-12-12T08:35:12.546Z,32.37
2022-12-12T08:37:40.603Z,29.63
2022-12-12T08:40:09.623Z,29.87
2022-12-12T08:42:37.514Z,29.30
2022-12-12T08:45:06.199Z,32.30
2022-12-12T08:47:34.342Z,30.43
2022-12-12T08:50:02.227Z,32.77
2022-12-12T08:52:31.567Z,29.60
2022-12-12T08:54:59.469Z,29.17
2022-12-12T08:57:27.380Z,31.43
2022-12-12T08:59:55.300Z,29.67
2022-12-12T09:02:23.441Z,28.63
2022-12-12T09:04:51.442Z,27.67
2022-12-12T09:07:19.277Z,29.03
2022-12-12T09:09:48.505Z,35.47
2022-12-12T09:12:16.569Z,28.47
2022-12-12T09:14:44.496Z,28.07
2022-12-12T09:17:12.420Z,32.87
2022-12-12T09:19:41.068Z,29.83
2022-12-12T09:22:11.295Z,27.53
2022-12-12T09:24:39.436Z,26.07
2022-12-12T09:27:08.846Z,28.57
2022-12-12T09:29:36.707Z,29.37
2022-12-12T09:32:06.558Z,27.47
2022-12-12T09:34:34.435Z,29.23
2022-12-12T09:37:02.821Z,26.97
2022-12-12T09:39:30.822Z,28.70
2022-12-12T09:41:59.061Z,30.87
2022-12-12T09:44:28.692Z,30.10
2022-12-12T09:47:00.342Z,32.33
2022-12-12T09:49:41.536Z,26.53
2022-12-12T09:52:14.199Z,32.17
2022-12-12T09:54:42.056Z,30.83
2022-12-12T09:57:21.202Z,32.47
2022-12-12T09:59:52.991Z,32.90
2022-12-12T10:02:41.888Z,29.17
2022-12-12T10:05:20.112Z,27.70
2022-12-12T10:07:55.574Z,27.23
2022-12-12T10:10:25.965Z,30.57
2022-12-12T10:12:54.866Z,27.57
2022-12-12T10:15:30.991Z,29.27
2022-12-12T10:18:00.759Z,30.73
2022-12-12T10:20:30.244Z,28.77
2022-12-12T10:23:02.231Z,29.77
2022-12-12T10:25:39.246Z,30.37
2022-12-12T10:28:11.730Z,31.73
2022-12-12T10:30:52.811Z,30.40
2022-12-12T10:33:28.590Z,27.63
2022-12-12T10:36:02.071Z,30.37
2022-12-12T10:38:39.921Z,30.37
2022-12-12T10:41:13.141Z,24.60
2022-12-12T10:43:46.055Z,25.87
2022-12-12T10:46:24.862Z,29.43
2022-12-12T10:48:52.991Z,27.63
2022-12-12T10:51:22.731Z,25.90
2022-12-12T10:53:50.577Z,26.20
2022-12-12T10:56:22.561Z,24.57
2022-12-12T10:58:54.876Z,25.73
2022-12-12T11:01:52.477Z,24.30
2022-12-12T11:04:15.769Z,29.60
2022-12-12T11:06:47.106Z,25.80
2022-12-12T11:09:19.254Z,25.87
2022-12-12T11:11:58.280Z,27.17
2022-12-12T11:14:30.769Z,24.47
2022-12-12T11:16:59.951Z,26.50
2022-12-12T11:19:29.491Z,24.77
2022-12-12T11:22:04.476Z,24.67
2022-12-12T11:24:33.532Z,24.27
2022-12-12T11:27:03.402Z,27.60
2022-12-12T11:29:38.099Z,23.93
2022-12-12T11:32:13.588Z,25.43
2022-12-12T11:34:46.174Z,27.07
2022-12-12T11:37:16.815Z,26.30
2022-12-12T11:39:47.044Z,27.20
2022-12-12T11:42:21.464Z,23.70
2022-12-12T11:44:58.840Z,25.53
2022-12-12T11:47:29.678Z,25.50
2022-12-12T11:49:59.363Z,23.07
2022-12-12T11:52:30.596Z,25.67
2022-12-12T11:54:59.055Z,20.80
2022-12-12T11:57:52.652Z,22.57
2022-12-12T12:00:21.633Z,24.93
2022-12-12T12:03:12.517Z,21.93
2022-12-12T12:05:47.906Z,21.33
2022-12-12T12:08:28.818Z,21.33
2022-12-12T12:11:06.282Z,23.57
2022-12-12T12:13:48.200Z,20.70
2022-12-12T12:16:21.569Z,18.57
2022-12-12T12:18:58.431Z,18.67
2022-12-12T12:21:35.576Z,25.57
2022-12-12T12:24:20.783Z,22.23
2022-12-12T12:26:55.107Z,22.23
2022-12-12T12:29:40.594Z,19.77
2022-12-12T12:32:13.866Z,23.77
2022-12-12T12:34:52.598Z,20.13
2022-12-12T12:37:32.488Z,22.83
2022-12-12T12:40:12.659Z,38.40
2022-12-12T12:42:51.558Z,20.33
2022-12-12T12:45:24.456Z,21.60
2022-12-12T12:47:55.127Z,21.63
2022-12-12T12:50:26.563Z,17.77
2022-12-12T12:52:57.918Z,19.37
2022-12-12T12:55:30.126Z,23.07
2022-12-12T12:57:57.978Z,20.70
2022-12-12T13:00:30.090Z,19.97
2022-12-12T13:03:02.126Z,21.03
2022-12-12T13:05:34.884Z,19.03
2022-12-12T13:08:10.023Z,19.20
2022-12-12T13:10:41.412Z,17.93
2022-12-12T13:13:13.494Z,19.97
2022-12-12T13:15:43.403Z,19.80
2022-12-12T13:18:13.604Z,18.93
2022-12-12T13:20:45.824Z,19.10
2022-12-12T13:23:21.498Z,17.97
2022-12-12T13:25:54.232Z,18.30
2022-12-12T13:28:25.199Z,19.83
2022-12-12T13:31:12.581Z,21.33
2022-12-12T13:33:45.039Z,21.40
2022-12-12T13:36:18.412Z,21.43
2022-12-12T13:38:49.535Z,21.03
2022-12-12T13:41:17.504Z,21.33
2022-12-12T13:43:47.751Z,22.30
2022-12-12T13:46:36.646Z,20.40
2022-12-12T13:49:16.648Z,20.50
2022-12-12T13:51:46.456Z,17.83
2022-12-12T13:54:54.667Z,17.43
2022-12-12T13:57:27.668Z,16.07
2022-12-12T14:00:29.359Z,17.03
2022-12-12T14:03:02.043Z,18.87
2022-12-12T14:05:32.036Z,17.43
2022-12-12T14:08:05.810Z,16.53
2022-12-12T14:10:36.775Z,17.80
2022-12-12T14:13:19.607Z,18.03
2022-12-12T14:15:48.394Z,17.93
2022-12-12T14:18:24.719Z,15.83
2022-12-12T14:21:00.339Z,16.97
2022-12-12T14:23:32.148Z,15.83
2022-12-12T14:26:00.728Z,18.60
2022-12-12T14:28:29.536Z,18.33
2022-12-12T14:31:07.167Z,20.20
2022-12-12T14:33:53.704Z,18.53
2022-12-12T14:36:56.560Z,16.57
2022-12-12T14:39:45.332Z,18.13
2022-12-12T14:42:23.008Z,14.70
2022-12-12T14:44:51.183Z,18.10
2022-12-12T14:47:19.395Z,19.97
2022-12-12T14:49:47.270Z,18.97
2022-12-12T14:52:18.129Z,15.43
2022-12-12T14:54:47.481Z,15.20
2022-12-12T14:57:20.709Z,18.63
2022-12-12T14:59:49.115Z,15.47
2022-12-12T15:02:21.816Z,19.93
2022-12-12T15:04:52.104Z,19.57
2022-12-12T15:07:25.849Z,17.97
2022-12-12T15:09:55.145Z,19.73
2022-12-12T15:12:25.358Z,16.90
2022-12-12T15:14:55.751Z,20.30
2022-12-12T15:17:27.558Z,22.67
2022-12-12T15:19:57.474Z,20.63
2022-12-12T15:22:27.686Z,25.80
2022-12-12T15:24:58.990Z,28.60
2022-12-12T15:27:30.578Z,24.57
2022-12-12T15:29:58.918Z,28.30
2022-12-12T15:32:28.678Z,34.53
2022-12-12T15:35:03.169Z,27.13
2022-12-12T15:37:32.762Z,25.63
2022-12-12T15:40:24.379Z,22.10
2022-12-12T15:42:55.526Z,24.07
2022-12-12T15:45:27.444Z,27.23
2022-12-12T15:47:56.564Z,26.27
2022-12-12T15:50:27.117Z,23.87
2022-12-12T15:53:05.577Z,28.63
2022-12-12T15:55:35.859Z,27.20
2022-12-12T15:58:03.956Z,26.37
2022-12-12T16:00:34.877Z,27.60
2022-12-12T16:03:20.653Z,27.80
2022-12-12T16:06:03.041Z,24.90
2022-12-12T16:08:48.222Z,24.10
2022-12-12T16:11:42.736Z,24.93
2022-12-12T16:14:26.592Z,28.70
2022-12-12T16:16:58.588Z,28.07
2022-12-12T16:19:41.719Z,27.53
2022-12-12T16:22:16.755Z,26.13
2022-12-12T16:24:50.637Z,27.67
2022-12-12T16:27:19.917Z,28.43
2022-12-12T16:29:47.986Z,26.77
2022-12-12T16:32:17.911Z,29.37
2022-12-12T16:34:46.685Z,37.03
2022-12-12T16:37:15.667Z,31.50
2022-12-12T16:39:43.850Z,26.93
2022-12-12T16:42:14.435Z,30.13
2022-12-12T16:44:43.630Z,31.10
2022-12-12T16:47:15.915Z,30.47
2022-12-12T16:49:43.817Z,34.03
2022-12-12T16:52:13.066Z,28.97
2022-12-12T16:54:41.555Z,28.10
2022-12-12T16:57:09.937Z,37.10
2022-12-12T16:59:38.284Z,31.67
2022-12-12T17:02:18.048Z,30.30
2022-12-12T17:04:45.825Z,32.37
2022-12-12T17:07:13.937Z,31.67
2022-12-12T17:09:42.076Z,31.37
2022-12-12T17:12:11.742Z,34.50
2022-12-12T17:14:39.874Z,32.10
2022-12-12T17:17:09.129Z,32.73
2022-12-12T17:19:36.973Z,31.23
2022-12-12T17:22:04.856Z,36.73
2022-12-12T17:24:32.843Z,35.40
2022-12-12T17:27:00.635Z,31.60
2022-12-12T17:29:28.419Z,33.03
2022-12-12T17:31:56.343Z,31.43
2022-12-12T17:34:25.540Z,31.70
2022-12-12T17:36:53.411Z,29.87
2022-12-12T17:39:22.786Z,35.53
2022-12-12T17:41:50.921Z,29.10
2022-12-12T17:44:18.694Z,32.03
2022-12-12T17:46:46.560Z,34.53
2022-12-12T17:49:14.474Z,33.07
2022-12-12T17:51:43.661Z,30.93
2022-12-12T17:54:11.464Z,33.40
2022-12-12T17:56:39.951Z,34.60
2022-12-12T17:59:09.560Z,31.23
2022-12-12T18:01:37.669Z,34.57
2022-12-12T18:04:06.173Z,59.17
2022-12-12T18:06:36.061Z,34.90
2022-12-12T18:09:05.863Z,37.57
2022-12-12T18:11:35.681Z,35.67
2022-12-12T18:14:06.289Z,32.63
2022-12-12T18:16:35.033Z,36.33
2022-12-12T18:19:03.318Z,37.23
2022-12-12T18:21:59.882Z,32.80
2022-12-12T18:24:22.820Z,35.73
2022-12-12T18:26:52.826Z,40.83
2022-12-12T18:29:21.657Z,37.67
2022-12-12T18:31:49.956Z,32.90
2022-12-12T18:34:18.127Z,36.37
2022-12-12T18:36:46.080Z,36.13
2022-12-12T18:39:13.876Z,34.10
2022-12-12T18:41:43.214Z,32.53
2022-12-12T18:44:13.427Z,33.63
2022-12-12T18:46:43.376Z,35.43
2022-12-12T18:49:13.857Z,32.77
2022-12-12T18:51:42.210Z,34.03
2022-12-12T18:54:15.013Z,32.40
2022-12-12T18:56:46.616Z,34.83
2022-12-12T18:59:15.373Z,36.67
2022-12-12T19:01:43.749Z,37.37
2022-12-12T19:04:17.471Z,32.77
2022-12-12T19:06:49.088Z,39.23
2022-12-12T19:09:19.229Z,36.67
2022-12-12T19:11:48.697Z,40.97
2022-12-12T19:14:17.704Z,35.40
2022-12-12T19:16:46.249Z,35.90
2022-12-12T19:19:15.103Z,35.50
2022-12-12T19:21:44.283Z,36.80
2022-12-12T19:24:13.324Z,38.03
2022-12-12T19:26:43.695Z,33.57
2022-12-12T19:29:15.113Z,38.23
2022-12-12T19:31:43.312Z,37.37
2022-12-12T19:34:14.135Z,36.47
2022-12-12T19:36:42.445Z,34.53
2022-12-12T19:39:12.194Z,36.20
2022-12-12T19:41:40.389Z,38.87
2022-12-12T19:44:12.416Z,33.33
2022-12-12T19:46:43.045Z,39.93
2022-12-12T19:49:12.617Z,39.37
2022-12-12T19:51:40.668Z,33.63
2022-12-12T19:54:11.095Z,37.03
2022-12-12T19:56:41.770Z,42.00
2022-12-12T19:59:12.427Z,40.20
2022-12-12T20:01:42.252Z,36.80
2022-12-12T20:04:15.386Z,39.77
2022-12-12T20:06:45.917Z,38.77
2022-12-12T20:09:15.035Z,38.03
2022-12-12T20:11:45.178Z,36.40
2022-12-12T20:14:13.955Z,34.50
2022-12-12T20:16:43.674Z,35.50
2022-12-12T20:19:12.183Z,34.87
2022-12-12T20:24:31.908Z,37.20
2022-12-12T20:27:00.403Z,31.67
2022-12-12T20:29:28.766Z,38.30
2022-12-12T20:31:59.721Z,35.17
2022-12-12T20:34:28.118Z,37.27
2022-12-12T20:36:56.087Z,37.53
2022-12-12T20:39:25.061Z,38.10
2022-12-12T20:41:54.308Z,37.07
2022-12-12T20:44:23.309Z,40.63
2022-12-12T20:46:51.221Z,36.93
2022-12-12T20:49:22.453Z,34.03
2022-12-12T20:51:58.459Z,35.67
2022-12-12T20:54:27.800Z,38.40
2022-12-12T20:56:55.968Z,40.23
2022-12-12T20:59:24.056Z,41.87
2022-12-12T21:01:52.184Z,47.27
2022-12-12T21:04:21.915Z,47.17
2022-12-12T21:06:51.244Z,44.77
2022-12-12T21:09:25.756Z,44.57
2022-12-12T21:11:55.794Z,42.47
2022-12-12T21:14:24.801Z,45.80
2022-12-12T21:16:52.937Z,44.13
2022-12-12T21:19:23.377Z,44.20
2022-12-12T21:21:52.072Z,44.10
2022-12-12T21:24:20.511Z,41.20
2022-12-12T21:26:49.122Z,45.27
2022-12-12T21:29:17.352Z,42.90
2022-12-12T21:31:50.765Z,40.93
2022-12-12T21:34:19.958Z,36.67
2022-12-12T21:36:51.289Z,36.57
2022-12-12T21:39:19.262Z,39.90
2022-12-12T21:41:47.332Z,40.30
2022-12-12T21:44:15.544Z,39.53
2022-12-12T21:46:44.264Z,38.00
2022-12-12T21:49:26.678Z,45.67
2022-12-12T21:51:57.648Z,38.97
2022-12-12T21:54:26.219Z,38.40
2022-12-12T21:56:54.084Z,35.43
2022-12-12T21:59:21.901Z,40.80
2022-12-12T22:01:49.848Z,41.27
2022-12-12T22:04:17.918Z,36.40
2022-12-12T22:06:46.635Z,38.10
2022-12-12T22:09:15.923Z,39.40
2022-12-12T22:11:50.787Z,37.87
2022-12-12T22:14:21.021Z,39.10
2022-12-12T22:16:49.061Z,36.27
2022-12-12T22:19:18.360Z,38.50
2022-12-12T22:21:47.543Z,36.50
2022-12-12T22:24:17.381Z,38.60
2022-12-12T22:26:46.905Z,39.73
2022-12-12T22:29:16.673Z,37.57
2022-12-12T22:31:45.320Z,37.90
2022-12-12T22:34:15.522Z,36.77
2022-12-12T22:36:44.643Z,35.40
2022-12-12T22:39:16.420Z,38.30
2022-12-12T22:41:44.562Z,39.20
2022-12-12T22:44:16.030Z,42.57
2022-12-12T22:46:44.663Z,41.60
2022-12-12T22:49:14.201Z,49.07
2022-12-12T22:51:42.821Z,43.30
2022-12-12T22:54:10.652Z,44.53
2022-12-12T22:56:40.667Z,49.87
2022-12-12T22:59:09.230Z,42.27
2022-12-12T23:01:37.237Z,41.60
2022-12-12T23:04:05.463Z,45.33
2022-12-12T23:06:36.632Z,46.33
2022-12-12T23:09:07.186Z,44.30
2022-12-12T23:11:36.676Z,44.53
2022-12-12T23:14:08.214Z,42.47
2022-12-12T23:16:36.969Z,39.43
2022-12-12T23:19:05.822Z,41.03
2022-12-12T23:21:35.116Z,44.73
2022-12-12T23:24:03.385Z,44.83
2022-12-12T23:26:32.191Z,41.70
2022-12-12T23:29:00.420Z,41.53
2022-12-12T23:31:31.796Z,39.93
2022-12-12T23:34:01.736Z,36.77
2022-12-12T23:36:30.376Z,36.10
2022-12-12T23:38:59.335Z,35.83
2022-12-12T23:41:27.683Z,39.37
2022-12-12T23:43:55.837Z,41.23
2022-12-12T23:46:38.079Z,38.17
2022-12-12T23:49:08.737Z,38.70
2022-12-12T23:51:38.454Z,36.30
2022-12-12T23:54:07.853Z,35.27
2022-12-12T23:56:37.762Z,36.73
2022-12-12T23:59:05.979Z,38.57
